sensor_id;sensor_type;location;lat;lon;timestamp;pressure;altitude;pressure_sealevel;temperature;humidity
59367;BME280;45163;47.690;11.770;2023-01-25T00:00:13;94572.34;;;-2.17;100.00
59367;BME280;45163;47.690;11.770;2023-01-25T00:02:39;94564.06;;;-2.24;100.00
59367;BME280;45163;47.690;11.770;2023-01-25T00:05:05;94566.75;;;-2.24;100.00
59367;BME280;45163;47.690;11.770;2023-01-25T00:07:31;94555.72;;;-2.23;100.00
59367;BME280;45163;47.690;11.770;2023-01-25T00:09:57;94569.28;;;-2.28;100.00
59367;BME280;45163;47.690;11.770;2023-01-25T00:12:23;94557.03;;;-2.29;100.00
59367;BME280;45163;47.690;11.770;2023-01-25T00:14:49;94556.34;;;-2.26;100.00
59367;BME280;45163;47.690;11.770;2023-01-25T00:17:15;94560.13;;;-2.27;100.00
59367;BME280;45163;47.690;11.770;2023-01-25T00:19:41;94557.94;;;-2.25;100.00
59367;BME280;45163;47.690;11.770;2023-01-25T00:22:07;94557.63;;;-2.23;100.00
59367;BME280;45163;47.690;11.770;2023-01-25T00:24:33;94559.50;;;-2.24;100.00
59367;BME280;45163;47.690;11.770;2023-01-25T00:26:59;94555.72;;;-2.23;100.00
59367;BME280;45163;47.690;11.770;2023-01-25T00:29:26;94555.84;;;-2.19;100.00
59367;BME280;45163;47.690;11.770;2023-01-25T00:32:28;94543.59;;;-2.20;100.00
59367;BME280;45163;47.690;11.770;2023-01-25T00:34:57;94545.03;;;-2.23;100.00
59367;BME280;45163;47.690;11.770;2023-01-25T00:37:28;94546.63;;;-2.31;100.00
59367;BME280;45163;47.690;11.770;2023-01-25T00:39:55;94541.13;;;-2.34;100.00
59367;BME280;45163;47.690;11.770;2023-01-25T00:42:22;94544.66;;;-2.42;100.00
59367;BME280;45163;47.690;11.770;2023-01-25T00:44:48;94542.16;;;-2.47;100.00
59367;BME280;45163;47.690;11.770;2023-01-25T00:47:15;94550.16;;;-2.47;100.00
59367;BME280;45163;47.690;11.770;2023-01-25T00:49:42;94539.81;;;-2.49;100.00
59367;BME280;45163;47.690;11.770;2023-01-25T00:52:09;94538.69;;;-2.48;100.00
59367;BME280;45163;47.690;11.770;2023-01-25T00:54:35;94527.69;;;-2.46;100.00
59367;BME280;45163;47.690;11.770;2023-01-25T00:57:02;94527.06;;;-2.52;100.00
59367;BME280;45163;47.690;11.770;2023-01-25T00:59:28;94533.19;;;-2.52;100.00
59367;BME280;45163;47.690;11.770;2023-01-25T01:01:54;94534.94;;;-2.56;100.00
59367;BME280;45163;47.690;11.770;2023-01-25T01:04:21;94535.59;;;-2.59;100.00
59367;BME280;45163;47.690;11.770;2023-01-25T01:06:50;94538.28;;;-2.59;100.00
59367;BME280;45163;47.690;11.770;2023-01-25T01:09:19;94534.81;;;-2.59;100.00
59367;BME280;45163;47.690;11.770;2023-01-25T01:11:45;94546.31;;;-2.59;100.00
59367;BME280;45163;47.690;11.770;2023-01-25T01:14:12;94546.94;;;-2.62;100.00
59367;BME280;45163;47.690;11.770;2023-01-25T01:16:38;94549.13;;;-2.64;100.00
59367;BME280;45163;47.690;11.770;2023-01-25T01:19:04;94549.47;;;-2.65;100.00
59367;BME280;45163;47.690;11.770;2023-01-25T01:21:31;94550.41;;;-2.70;100.00
59367;BME280;45163;47.690;11.770;2023-01-25T01:23:57;94547.78;;;-2.79;100.00
59367;BME280;45163;47.690;11.770;2023-01-25T01:26:23;94556.25;;;-2.77;100.00
59367;BME280;45163;47.690;11.770;2023-01-25T01:28:49;94552.00;;;-2.78;100.00
59367;BME280;45163;47.690;11.770;2023-01-25T01:31:20;94551.72;;;-2.85;100.00
59367;BME280;45163;47.690;11.770;2023-01-25T01:33:51;94552.63;;;-2.81;100.00
59367;BME280;45163;47.690;11.770;2023-01-25T01:36:21;94552.34;;;-2.79;100.00
59367;BME280;45163;47.690;11.770;2023-01-25T01:38:47;94553.56;;;-2.77;100.00
59367;BME280;45163;47.690;11.770;2023-01-25T01:41:14;94550.91;;;-2.77;100.00
59367;BME280;45163;47.690;11.770;2023-01-25T01:43:41;94548.72;;;-2.74;100.00
59367;BME280;45163;47.690;11.770;2023-01-25T01:49:14;94555.78;;;-2.79;100.00
59367;BME280;45163;47.690;11.770;2023-01-25T01:51:45;94553.59;;;-2.85;100.00
59367;BME280;45163;47.690;11.770;2023-01-25T01:57:01;94552.03;;;-2.86;100.00
59367;BME280;45163;47.690;11.770;2023-01-25T01:59:33;94556.41;;;-2.82;100.00
59367;BME280;45163;47.690;11.770;2023-01-25T02:02:00;94552.78;;;-2.77;100.00
59367;BME280;45163;47.690;11.770;2023-01-25T02:04:27;94559.06;;;-2.73;100.00
59367;BME280;45163;47.690;11.770;2023-01-25T02:07:04;94552.63;;;-2.72;100.00
59367;BME280;45163;47.690;11.770;2023-01-25T02:09:33;94552.63;;;-2.72;100.00
59367;BME280;45163;47.690;11.770;2023-01-25T02:12:01;94553.56;;;-2.77;100.00
59367;BME280;45163;47.690;11.770;2023-01-25T02:14:28;94553.72;;;-2.73;100.00
59367;BME280;45163;47.690;11.770;2023-01-25T02:16:54;94541.31;;;-2.78;100.00
59367;BME280;45163;47.690;11.770;2023-01-25T02:19:44;94543.22;;;-2.78;100.00
59367;BME280;45163;47.690;11.770;2023-01-25T02:22:15;94544.00;;;-2.78;100.00
59367;BME280;45163;47.690;11.770;2023-01-25T02:24:58;94542.44;;;-2.79;100.00
59367;BME280;45163;47.690;11.770;2023-01-25T02:27:26;94535.66;;;-2.76;100.00
59367;BME280;45163;47.690;11.770;2023-01-25T02:29:52;94540.69;;;-2.74;100.00
59367;BME280;45163;47.690;11.770;2023-01-25T02:32:19;94532.97;;;-2.76;100.00
59367;BME280;45163;47.690;11.770;2023-01-25T02:34:44;94530.22;;;-2.88;100.00
59367;BME280;45163;47.690;11.770;2023-01-25T02:37:13;94537.16;;;-2.96;100.00
59367;BME280;45163;47.690;11.770;2023-01-25T02:39:40;94526.13;;;-2.94;100.00
59367;BME280;45163;47.690;11.770;2023-01-25T02:42:07;94539.78;;;-2.87;100.00
59367;BME280;45163;47.690;11.770;2023-01-25T02:44:33;94533.81;;;-2.93;100.00
59367;BME280;45163;47.690;11.770;2023-01-25T02:46:59;94530.84;;;-2.91;100.00
59367;BME280;45163;47.690;11.770;2023-01-25T02:49:25;94531.28;;;-2.89;100.00
59367;BME280;45163;47.690;11.770;2023-01-25T02:51:54;94532.72;;;-2.83;100.00
59367;BME280;45163;47.690;11.770;2023-01-25T02:54:23;94528.16;;;-2.83;100.00
59367;BME280;45163;47.690;11.770;2023-01-25T02:56:50;94527.81;;;-2.81;100.00
59367;BME280;45163;47.690;11.770;2023-01-25T02:59:16;94520.63;;;-2.89;100.00
59367;BME280;45163;47.690;11.770;2023-01-25T03:01:44;94519.97;;;-2.86;100.00
59367;BME280;45163;47.690;11.770;2023-01-25T03:04:10;94520.13;;;-2.83;100.00
59367;BME280;45163;47.690;11.770;2023-01-25T03:06:37;94522.34;;;-2.93;100.00
59367;BME280;45163;47.690;11.770;2023-01-25T03:09:05;94519.06;;;-2.90;100.00
59367;BME280;45163;47.690;11.770;2023-01-25T03:11:31;94518.91;;;-2.94;100.00
59367;BME280;45163;47.690;11.770;2023-01-25T03:13:57;94511.38;;;-2.92;100.00
59367;BME280;45163;47.690;11.770;2023-01-25T03:16:23;94499.91;;;-2.92;100.00
59367;BME280;45163;47.690;11.770;2023-01-25T03:18:52;94493.44;;;-2.91;100.00
59367;BME280;45163;47.690;11.770;2023-01-25T03:21:21;94493.31;;;-2.95;100.00
59367;BME280;45163;47.690;11.770;2023-01-25T03:23:54;94493.75;;;-2.93;100.00
59367;BME280;45163;47.690;11.770;2023-01-25T03:26:21;94491.41;;;-2.94;100.00
59367;BME280;45163;47.690;11.770;2023-01-25T03:28:47;94485.63;;;-2.96;100.00
59367;BME280;45163;47.690;11.770;2023-01-25T03:31:15;94479.34;;;-3.01;100.00
59367;BME280;45163;47.690;11.770;2023-01-25T03:33:41;94473.53;;;-3.03;100.00
59367;BME280;45163;47.690;11.770;2023-01-25T03:36:08;94475.88;;;-3.01;100.00
59367;BME280;45163;47.690;11.770;2023-01-25T03:38:35;94487.34;;;-3.01;100.00
59367;BME280;45163;47.690;11.770;2023-01-25T03:41:02;94479.97;;;-3.04;100.00
59367;BME280;45163;47.690;11.770;2023-01-25T03:43:29;94476.84;;;-3.14;100.00
59367;BME280;45163;47.690;11.770;2023-01-25T03:45:58;94470.31;;;-3.26;100.00
59367;BME280;45163;47.690;11.770;2023-01-25T03:48:25;94466.69;;;-3.21;100.00
59367;BME280;45163;47.690;11.770;2023-01-25T03:50:54;94474.56;;;-3.33;100.00
59367;BME280;45163;47.690;11.770;2023-01-25T03:53:21;94467.97;;;-3.36;100.00
59367;BME280;45163;47.690;11.770;2023-01-25T03:56:08;94473.31;;;-3.36;100.00
59367;BME280;45163;47.690;11.770;2023-01-25T03:58:36;94472.06;;;-3.38;100.00
59367;BME280;45163;47.690;11.770;2023-01-25T04:01:03;94480.53;;;-3.36;100.00
59367;BME280;45163;47.690;11.770;2023-01-25T04:03:29;94488.88;;;-3.38;100.00
59367;BME280;45163;47.690;11.770;2023-01-25T04:05:56;94485.88;;;-3.36;100.00
59367;BME280;45163;47.690;11.770;2023-01-25T04:08:23;94484.31;;;-3.37;100.00
59367;BME280;45163;47.690;11.770;2023-01-25T04:10:54;94492.94;;;-3.40;100.00
59367;BME280;45163;47.690;11.770;2023-01-25T04:13:21;94494.81;;;-3.41;100.00
59367;BME280;45163;47.690;11.770;2023-01-25T04:15:48;94486.03;;;-3.41;100.00
59367;BME280;45163;47.690;11.770;2023-01-25T04:18:14;94491.69;;;-3.43;100.00
59367;BME280;45163;47.690;11.770;2023-01-25T04:20:40;94493.13;;;-3.45;100.00
59367;BME280;45163;47.690;11.770;2023-01-25T04:23:07;94482.09;;;-3.44;100.00
59367;BME280;45163;47.690;11.770;2023-01-25T04:25:34;94482.25;;;-3.40;100.00
59367;BME280;45163;47.690;11.770;2023-01-25T04:28:00;94491.84;;;-3.39;100.00
59367;BME280;45163;47.690;11.770;2023-01-25T04:30:26;94488.41;;;-3.48;100.00
59367;BME280;45163;47.690;11.770;2023-01-25T04:32:53;94484.34;;;-3.55;100.00
59367;BME280;45163;47.690;11.770;2023-01-25T04:35:19;94488.91;;;-3.55;100.00
59367;BME280;45163;47.690;11.770;2023-01-25T04:37:55;94485.91;;;-3.54;100.00
59367;BME280;45163;47.690;11.770;2023-01-25T04:40:21;94485.13;;;-3.54;100.00
59367;BME280;45163;47.690;11.770;2023-01-25T04:42:47;94486.34;;;-3.52;100.00
59367;BME280;45163;47.690;11.770;2023-01-25T04:45:13;94481.50;;;-3.49;100.00
59367;BME280;45163;47.690;11.770;2023-01-25T04:47:39;94487.16;;;-3.51;100.00
59367;BME280;45163;47.690;11.770;2023-01-25T04:50:06;94485.75;;;-3.57;100.00
59367;BME280;45163;47.690;11.770;2023-01-25T04:52:32;94489.38;;;-3.62;100.00
59367;BME280;45163;47.690;11.770;2023-01-25T04:54:57;94474.13;;;-3.61;100.00
59367;BME280;45163;47.690;11.770;2023-01-25T04:57:23;94482.91;;;-3.61;100.00
59367;BME280;45163;47.690;11.770;2023-01-25T04:59:49;94480.59;;;-3.62;100.00
59367;BME280;45163;47.690;11.770;2023-01-25T05:02:15;94480.75;;;-3.67;100.00
59367;BME280;45163;47.690;11.770;2023-01-25T05:04:41;94475.53;;;-3.64;100.00
59367;BME280;45163;47.690;11.770;2023-01-25T05:07:07;94467.09;;;-3.66;100.00
59367;BME280;45163;47.690;11.770;2023-01-25T05:09:33;94464.59;;;-3.71;100.00
59367;BME280;45163;47.690;11.770;2023-01-25T05:11:59;94463.81;;;-3.71;100.00
59367;BME280;45163;47.690;11.770;2023-01-25T05:14:25;94465.69;;;-3.72;100.00
59367;BME280;45163;47.690;11.770;2023-01-25T05:16:51;94463.03;;;-3.72;100.00
59367;BME280;45163;47.690;11.770;2023-01-25T05:19:17;94459.53;;;-3.72;100.00
59367;BME280;45163;47.690;11.770;2023-01-25T05:21:44;94448.88;;;-3.72;100.00
59367;BME280;45163;47.690;11.770;2023-01-25T05:24:26;94454.69;;;-3.70;100.00
59367;BME280;45163;47.690;11.770;2023-01-25T05:26:52;94445.44;;;-3.73;100.00
59367;BME280;45163;47.690;11.770;2023-01-25T05:31:57;94441.34;;;-3.62;100.00
59367;BME280;45163;47.690;11.770;2023-01-25T05:34:24;94442.91;;;-3.61;100.00
59367;BME280;45163;47.690;11.770;2023-01-25T05:36:50;94447.28;;;-3.56;100.00
59367;BME280;45163;47.690;11.770;2023-01-25T05:39:16;94448.06;;;-3.56;100.00
59367;BME280;45163;47.690;11.770;2023-01-25T05:41:43;94439.75;;;-3.54;100.00
59367;BME280;45163;47.690;11.770;2023-01-25T05:44:09;94435.81;;;-3.57;100.00
59367;BME280;45163;47.690;11.770;2023-01-25T05:46:35;94444.31;;;-3.55;100.00
59367;BME280;45163;47.690;11.770;2023-01-25T05:49:01;94442.28;;;-3.58;100.00
59367;BME280;45163;47.690;11.770;2023-01-25T05:51:27;94440.06;;;-3.56;100.00
59367;BME280;45163;47.690;11.770;2023-01-25T05:53:54;94438.66;;;-3.62;100.00
59367;BME280;45163;47.690;11.770;2023-01-25T05:56:21;94436.44;;;-3.60;100.00
59367;BME280;45163;47.690;11.770;2023-01-25T05:58:54;94432.41;;;-3.66;100.00
59367;BME280;45163;47.690;11.770;2023-01-25T06:01:20;94440.84;;;-3.64;100.00
59367;BME280;45163;47.690;11.770;2023-01-25T06:03:47;94440.09;;;-3.73;100.00
59367;BME280;45163;47.690;11.770;2023-01-25T06:06:13;94436.19;;;-3.76;100.00
59367;BME280;45163;47.690;11.770;2023-01-25T06:08:39;94439.94;;;-3.77;100.00
59367;BME280;45163;47.690;11.770;2023-01-25T06:11:06;94430.69;;;-3.79;100.00
59367;BME280;45163;47.690;11.770;2023-01-25T06:13:32;94429.59;;;-3.87;100.00
59367;BME280;45163;47.690;11.770;2023-01-25T06:15:58;94422.56;;;-3.91;100.00
59367;BME280;45163;47.690;11.770;2023-01-25T06:18:24;94415.97;;;-4.03;100.00
59367;BME280;45163;47.690;11.770;2023-01-25T06:20:50;94414.09;;;-4.11;100.00
59367;BME280;45163;47.690;11.770;2023-01-25T06:23:17;94412.06;;;-4.05;100.00
59367;BME280;45163;47.690;11.770;2023-01-25T06:25:43;94417.25;;;-4.09;100.00
59367;BME280;45163;47.690;11.770;2023-01-25T06:28:09;94412.53;;;-4.12;100.00
59367;BME280;45163;47.690;11.770;2023-01-25T06:30:35;94408.47;;;-4.09;100.00
59367;BME280;45163;47.690;11.770;2023-01-25T06:33:01;94423.50;;;-4.13;100.00
59367;BME280;45163;47.690;11.770;2023-01-25T06:35:27;94423.81;;;-4.15;100.00
59367;BME280;45163;47.690;11.770;2023-01-25T06:37:55;94423.50;;;-4.13;100.00
59367;BME280;45163;47.690;11.770;2023-01-25T06:40:21;94421.78;;;-4.09;100.00
59367;BME280;45163;47.690;11.770;2023-01-25T06:42:47;94418.97;;;-4.04;100.00
59367;BME280;45163;47.690;11.770;2023-01-25T06:45:13;94410.63;;;-4.03;100.00
59367;BME280;45163;47.690;11.770;2023-01-25T06:47:39;94412.53;;;-4.03;100.00
59367;BME280;45163;47.690;11.770;2023-01-25T06:50:06;94407.03;;;-3.98;100.00
59367;BME280;45163;47.690;11.770;2023-01-25T06:52:32;94413.47;;;-3.99;100.00
59367;BME280;45163;47.690;11.770;2023-01-25T06:55:05;94416.28;;;-3.95;100.00
59367;BME280;45163;47.690;11.770;2023-01-25T06:57:33;94410.00;;;-3.99;100.00
59367;BME280;45163;47.690;11.770;2023-01-25T06:59:59;94405.94;;;-3.97;100.00
59367;BME280;45163;47.690;11.770;2023-01-25T07:02:25;94411.25;;;-4.14;100.00
59367;BME280;45163;47.690;11.770;2023-01-25T07:04:51;94410.97;;;-4.21;100.00
59367;BME280;45163;47.690;11.770;2023-01-25T07:07:17;94411.59;;;-4.16;100.00
59367;BME280;45163;47.690;11.770;2023-01-25T07:09:43;94405.94;;;-4.23;100.00
59367;BME280;45163;47.690;11.770;2023-01-25T07:12:09;94409.09;;;-4.30;100.00
59367;BME280;45163;47.690;11.770;2023-01-25T07:14:35;94401.88;;;-4.38;100.00
59367;BME280;45163;47.690;11.770;2023-01-25T07:17:01;94407.66;;;-4.36;100.00
59367;BME280;45163;47.690;11.770;2023-01-25T07:19:27;94404.22;;;-4.28;100.00
59367;BME280;45163;47.690;11.770;2023-01-25T07:21:53;94407.66;;;-4.27;100.00
59367;BME280;45163;47.690;11.770;2023-01-25T07:24:19;94408.16;;;-4.25;100.00
59367;BME280;45163;47.690;11.770;2023-01-25T07:26:45;94404.69;;;-4.17;100.00
59367;BME280;45163;47.690;11.770;2023-01-25T07:29:15;94409.06;;;-4.12;100.00
59367;BME280;45163;47.690;11.770;2023-01-25T07:31:41;94397.31;;;-4.11;100.00
59367;BME280;45163;47.690;11.770;2023-01-25T07:34:11;94394.34;;;-4.01;100.00
59367;BME280;45163;47.690;11.770;2023-01-25T07:36:38;94396.66;;;-3.91;100.00
59367;BME280;45163;47.690;11.770;2023-01-25T07:39:05;94389.28;;;-3.85;100.00
59367;BME280;45163;47.690;11.770;2023-01-25T07:41:33;94382.22;;;-3.90;100.00
59367;BME280;45163;47.690;11.770;2023-01-25T07:43:59;94386.59;;;-3.85;100.00
59367;BME280;45163;47.690;11.770;2023-01-25T07:46:26;94387.06;;;-3.74;100.00
59367;BME280;45163;47.690;11.770;2023-01-25T07:48:52;94383.28;;;-3.65;100.00
59367;BME280;45163;47.690;11.770;2023-01-25T07:51:20;94380.31;;;-3.81;100.00
59367;BME280;45163;47.690;11.770;2023-01-25T07:53:53;94384.59;;;-3.88;100.00
59367;BME280;45163;47.690;11.770;2023-01-25T07:56:26;94378.75;;;-3.82;100.00
59367;BME280;45163;47.690;11.770;2023-01-25T07:58:53;94368.09;;;-3.82;100.00
59367;BME280;45163;47.690;11.770;2023-01-25T08:01:22;94364.97;;;-3.84;100.00
59367;BME280;45163;47.690;11.770;2023-01-25T08:03:48;94362.47;;;-3.80;100.00
59367;BME280;45163;47.690;11.770;2023-01-25T08:06:15;94364.31;;;-3.72;100.00
59367;BME280;45163;47.690;11.770;2023-01-25T08:08:44;94361.63;;;-3.63;100.00
59367;BME280;45163;47.690;11.770;2023-01-25T08:11:13;94367.72;;;-3.54;100.00
59367;BME280;45163;47.690;11.770;2023-01-25T08:13:40;94360.94;;;-3.52;100.00
59367;BME280;45163;47.690;11.770;2023-01-25T08:16:12;94363.56;;;-3.43;100.00
59367;BME280;45163;47.690;11.770;2023-01-25T08:18:38;94369.53;;;-3.37;100.00
59367;BME280;45163;47.690;11.770;2023-01-25T08:21:04;94368.53;;;-3.24;100.00
59367;BME280;45163;47.690;11.770;2023-01-25T08:23:31;94370.19;;;-3.11;100.00
59367;BME280;45163;47.690;11.770;2023-01-25T08:26:01;94361.69;;;-3.04;100.00
59367;BME280;45163;47.690;11.770;2023-01-25T08:28:28;94361.94;;;-2.97;100.00
59367;BME280;45163;47.690;11.770;2023-01-25T08:30:54;94361.94;;;-2.88;100.00
59367;BME280;45163;47.690;11.770;2023-01-25T08:33:20;94368.34;;;-2.89;100.00
59367;BME280;45163;47.690;11.770;2023-01-25T08:35:55;94361.06;;;-2.80;100.00
59367;BME280;45163;47.690;11.770;2023-01-25T08:38:21;94367.28;;;-2.67;100.00
59367;BME280;45163;47.690;11.770;2023-01-25T08:40:47;94368.66;;;-2.61;100.00
59367;BME280;45163;47.690;11.770;2023-01-25T08:43:13;94368.03;;;-2.37;100.00
59367;BME280;45163;47.690;11.770;2023-01-25T08:45:40;94366.31;;;-2.21;100.00
59367;BME280;45163;47.690;11.770;2023-01-25T08:48:05;94365.84;;;-2.02;100.00
59367;BME280;45163;47.690;11.770;2023-01-25T08:50:31;94353.53;;;-1.82;100.00
59367;BME280;45163;47.690;11.770;2023-01-25T08:52:57;94355.22;;;-1.78;100.00
59367;BME280;45163;47.690;11.770;2023-01-25T08:55:23;94348.91;;;-1.61;100.00
59367;BME280;45163;47.690;11.770;2023-01-25T08:57:49;94353.41;;;-1.40;100.00
59367;BME280;45163;47.690;11.770;2023-01-25T09:00:16;94347.41;;;-1.25;100.00
59367;BME280;45163;47.690;11.770;2023-01-25T09:02:42;94347.50;;;-1.21;100.00
59367;BME280;45163;47.690;11.770;2023-01-25T09:05:08;94343.03;;;-1.05;100.00
59367;BME280;45163;47.690;11.770;2023-01-25T09:07:34;94330.88;;;-0.90;100.00
59367;BME280;45163;47.690;11.770;2023-01-25T09:10:04;94330.72;;;-0.57;100.00
59367;BME280;45163;47.690;11.770;2023-01-25T09:12:34;94333.53;;;-0.26;100.00
59367;BME280;45163;47.690;11.770;2023-01-25T09:15:02;94335.44;;;0.02;100.00
59367;BME280;45163;47.690;11.770;2023-01-25T09:17:28;94325.66;;;0.38;100.00
59367;BME280;45163;47.690;11.770;2023-01-25T09:19:54;94327.41;;;0.78;100.00
59367;BME280;45163;47.690;11.770;2023-01-25T09:22:20;94314.53;;;1.54;100.00
59367;BME280;45163;47.690;11.770;2023-01-25T09:24:46;94316.88;;;1.55;100.00
59367;BME280;45163;47.690;11.770;2023-01-25T09:27:16;94304.75;;;1.45;100.00
59367;BME280;45163;47.690;11.770;2023-01-25T09:29:42;94307.03;;;1.63;100.00
59367;BME280;45163;47.690;11.770;2023-01-25T09:32:08;94310.16;;;1.65;100.00
59367;BME280;45163;47.690;11.770;2023-01-25T09:34:35;94310.03;;;1.77;100.00
59367;BME280;45163;47.690;11.770;2023-01-25T09:37:01;94308.53;;;1.25;100.00
59367;BME280;45163;47.690;11.770;2023-01-25T09:39:27;94312.06;;;0.78;100.00
59367;BME280;45163;47.690;11.770;2023-01-25T09:47:55;94303.75;;;0.67;100.00
59367;BME280;45163;47.690;11.770;2023-01-25T09:50:43;94304.00;;;0.62;100.00
59367;BME280;45163;47.690;11.770;2023-01-25T09:53:33;94302.00;;;0.75;100.00
59367;BME280;45163;47.690;11.770;2023-01-25T09:56:12;94299.16;;;0.84;100.00
59367;BME280;45163;47.690;11.770;2023-01-25T09:58:45;94294.00;;;0.94;100.00
59367;BME280;45163;47.690;11.770;2023-01-25T10:01:24;94293.50;;;1.05;100.00
59367;BME280;45163;47.690;11.770;2023-01-25T10:03:57;94285.69;;;0.99;100.00
59367;BME280;45163;47.690;11.770;2023-01-25T10:06:47;94293.69;;;0.64;100.00
59367;BME280;45163;47.690;11.770;2023-01-25T10:11:52;94288.22;;;0.45;100.00
59367;BME280;45163;47.690;11.770;2023-01-25T10:14:18;94281.97;;;0.41;100.00
59367;BME280;45163;47.690;11.770;2023-01-25T10:19:27;94282.06;;;0.44;100.00
59367;BME280;45163;47.690;11.770;2023-01-25T10:22:02;94272.97;;;0.65;100.00
59367;BME280;45163;47.690;11.770;2023-01-25T10:30:36;94254.13;;;1.32;100.00
59367;BME280;45163;47.690;11.770;2023-01-25T10:33:12;94247.34;;;1.57;100.00
59367;BME280;45163;47.690;11.770;2023-01-25T10:35:43;94243.25;;;1.63;100.00
59367;BME280;45163;47.690;11.770;2023-01-25T10:38:29;94242.53;;;1.86;100.00
59367;BME280;45163;47.690;11.770;2023-01-25T10:43:35;94235.97;;;3.28;100.00
59367;BME280;45163;47.690;11.770;2023-01-25T10:46:01;94231.13;;;3.41;100.00
59367;BME280;45163;47.690;11.770;2023-01-25T10:48:35;94226.38;;;3.94;100.00
59367;BME280;45163;47.690;11.770;2023-01-25T10:51:02;94222.34;;;4.15;100.00
59367;BME280;45163;47.690;11.770;2023-01-25T10:53:36;94214.59;;;4.13;100.00
59367;BME280;45163;47.690;11.770;2023-01-25T10:58:39;94207.63;;;3.75;100.00
59367;BME280;45163;47.690;11.770;2023-01-25T11:01:08;94207.91;;;4.00;100.00
59367;BME280;45163;47.690;11.770;2023-01-25T11:03:41;94201.94;;;4.21;100.00
59367;BME280;45163;47.690;11.770;2023-01-25T11:06:09;94196.97;;;4.74;100.00
59367;BME280;45163;47.690;11.770;2023-01-25T11:08:37;94189.47;;;5.09;100.00
59367;BME280;45163;47.690;11.770;2023-01-25T11:11:23;94185.38;;;4.26;100.00
59367;BME280;45163;47.690;11.770;2023-01-25T11:13:52;94184.06;;;3.72;100.00
59367;BME280;45163;47.690;11.770;2023-01-25T11:18:56;94168.75;;;3.16;100.00
59367;BME280;45163;47.690;11.770;2023-01-25T11:21:32;94174.00;;;3.05;100.00
59367;BME280;45163;47.690;11.770;2023-01-25T11:26:33;94171.88;;;2.38;100.00
59367;BME280;45163;47.690;11.770;2023-01-25T11:29:20;94162.31;;;1.95;100.00
59367;BME280;45163;47.690;11.770;2023-01-25T11:31:54;94160.75;;;1.94;100.00
59367;BME280;45163;47.690;11.770;2023-01-25T11:34:24;94164.13;;;2.10;100.00
59367;BME280;45163;47.690;11.770;2023-01-25T11:42:58;94139.59;;;1.50;100.00
59367;BME280;45163;47.690;11.770;2023-01-25T11:51:17;94131.63;;;1.99;100.00
59367;BME280;45163;47.690;11.770;2023-01-25T11:54:08;94131.63;;;1.99;100.00
59367;BME280;45163;47.690;11.770;2023-01-25T12:18:53;94086.28;;;1.79;100.00
59367;BME280;45163;47.690;11.770;2023-01-25T12:29:59;94069.09;;;1.18;100.00
59367;BME280;45163;47.690;11.770;2023-01-25T12:32:39;94065.03;;;1.28;100.00
59367;BME280;45163;47.690;11.770;2023-01-25T12:37:46;94056.06;;;0.62;100.00
59367;BME280;45163;47.690;11.770;2023-01-25T12:40:48;94052.28;;;0.28;100.00
59367;BME280;45163;47.690;11.770;2023-01-25T12:43:22;94051.47;;;0.43;100.00
59367;BME280;45163;47.690;11.770;2023-01-25T12:45:50;94044.34;;;0.51;100.00
59367;BME280;45163;47.690;11.770;2023-01-25T12:48:34;94043.13;;;0.48;100.00
59367;BME280;45163;47.690;11.770;2023-01-25T12:51:03;94037.16;;;0.55;100.00
59367;BME280;45163;47.690;11.770;2023-01-25T12:53:34;94032.47;;;0.71;100.00
59367;BME280;45163;47.690;11.770;2023-01-25T12:56:05;94041.16;;;0.45;100.00
59367;BME280;45163;47.690;11.770;2023-01-25T12:58:52;94032.47;;;0.52;100.00
59367;BME280;45163;47.690;11.770;2023-01-25T13:01:52;94033.28;;;0.36;100.00
59367;BME280;45163;47.690;11.770;2023-01-25T13:09:56;94027.75;;;0.64;100.00
59367;BME280;45163;47.690;11.770;2023-01-25T13:12:24;94026.25;;;0.67;100.00
59367;BME280;45163;47.690;11.770;2023-01-25T13:14:50;94026.25;;;0.67;100.00
59367;BME280;45163;47.690;11.770;2023-01-25T13:17:29;94026.38;;;0.74;100.00
59367;BME280;45163;47.690;11.770;2023-01-25T13:28:55;94031.47;;;0.21;100.00
59367;BME280;45163;47.690;11.770;2023-01-25T13:34:10;94016.66;;;0.11;100.00
59367;BME280;45163;47.690;11.770;2023-01-25T13:36:44;94014.06;;;0.15;100.00
59367;BME280;45163;47.690;11.770;2023-01-25T13:44:41;94022.41;;;0.29;100.00
59367;BME280;45163;47.690;11.770;2023-01-25T13:47:11;94018.94;;;0.09;100.00
59367;BME280;45163;47.690;11.770;2023-01-25T13:49:43;94016.50;;;0.04;100.00
59367;BME280;45163;47.690;11.770;2023-01-25T13:52:17;94018.50;;;-0.09;100.00
59367;BME280;45163;47.690;11.770;2023-01-25T13:54:46;94020.16;;;-0.04;100.00
59367;BME280;45163;47.690;11.770;2023-01-25T13:57:14;94028.06;;;-0.11;100.00
59367;BME280;45163;47.690;11.770;2023-01-25T13:59:45;94021.81;;;-0.15;100.00
59367;BME280;45163;47.690;11.770;2023-01-25T14:02:17;94027.97;;;-0.15;100.00
59367;BME280;45163;47.690;11.770;2023-01-25T14:04:49;94024.06;;;-0.17;100.00
59367;BME280;45163;47.690;11.770;2023-01-25T14:07:18;94023.06;;;-0.29;100.00
59367;BME280;45163;47.690;11.770;2023-01-25T14:09:47;94026.78;;;-0.49;100.00
59367;BME280;45163;47.690;11.770;2023-01-25T14:14:50;94027.56;;;-0.48;100.00
59367;BME280;45163;47.690;11.770;2023-01-25T14:17:17;94025.22;;;-0.34;100.00
59367;BME280;45163;47.690;11.770;2023-01-25T14:19:45;94021.16;;;-0.44;100.00
59367;BME280;45163;47.690;11.770;2023-01-25T14:24:40;94019.59;;;-0.61;100.00
59367;BME280;45163;47.690;11.770;2023-01-25T14:27:11;94017.53;;;-0.67;100.00
59367;BME280;45163;47.690;11.770;2023-01-25T14:29:39;94013.38;;;-0.65;100.00
59367;BME280;45163;47.690;11.770;2023-01-25T14:32:05;94005.59;;;-0.70;100.00
59367;BME280;45163;47.690;11.770;2023-01-25T14:34:31;94007.50;;;-0.70;100.00
59367;BME280;45163;47.690;11.770;2023-01-25T14:37:17;94014.31;;;-0.73;100.00
59367;BME280;45163;47.690;11.770;2023-01-25T14:39:46;94019.00;;;-0.86;100.00